sensor_id;sensor_type;location;lat;lon;timestamp;pressure;altitude;pressure_sealevel;temperature;humidity
61682;BME280;47577;43.610;25.010;2023-09-30T00:01:21;100796.41;;;15.00;68.03
61682;BME280;47577;43.610;25.010;2023-09-30T00:03:47;100794.56;;;15.01;68.20
61682;BME280;47577;43.610;25.010;2023-09-30T00:06:13;100787.47;;;14.99;67.43
61682;BME280;47577;43.610;25.010;2023-09-30T00:08:39;100795.72;;;14.95;68.89
61682;BME280;47577;43.610;25.010;2023-09-30T00:11:07;100800.06;;;14.97;68.53
61682;BME280;47577;43.610;25.010;2023-09-30T00:13:33;100801.38;;;14.89;68.58
61682;BME280;47577;43.610;25.010;2023-09-30T00:15:59;100799.69;;;14.86;68.11
61682;BME280;47577;43.610;25.010;2023-09-30T00:18:25;100802.44;;;14.85;67.64
61682;BME280;47577;43.610;25.010;2023-09-30T00:20:50;100791.34;;;14.73;67.88
61682;BME280;47577;43.610;25.010;2023-09-30T00:23:16;100786.00;;;14.73;68.97
61682;BME280;47577;43.610;25.010;2023-09-30T00:25:42;100795.84;;;14.73;69.01
61682;BME280;47577;43.610;25.010;2023-09-30T00:28:07;100799.38;;;14.73;68.42
61682;BME280;47577;43.610;25.010;2023-09-30T00:30:33;100785.59;;;14.62;69.71
61682;BME280;47577;43.610;25.010;2023-09-30T00:32:59;100776.50;;;14.66;69.11
61682;BME280;47577;43.610;25.010;2023-09-30T00:35:25;100781.66;;;14.71;69.01
61682;BME280;47577;43.610;25.010;2023-09-30T00:37:51;100780.06;;;14.67;69.05
61682;BME280;47577;43.610;25.010;2023-09-30T00:40:16;100770.50;;;14.61;69.86
61682;BME280;47577;43.610;25.010;2023-09-30T00:42:42;100783.44;;;14.70;69.71
61682;BME280;47577;43.610;25.010;2023-09-30T00:45:08;100783.97;;;14.78;68.59
61682;BME280;47577;43.610;25.010;2023-09-30T00:47:37;100781.94;;;14.84;69.27
61682;BME280;47577;43.610;25.010;2023-09-30T00:50:04;100773.34;;;14.77;70.00
61682;BME280;47577;43.610;25.010;2023-09-30T00:52:33;100788.31;;;14.81;70.27
61682;BME280;47577;43.610;25.010;2023-09-30T00:54:59;100770.78;;;14.74;69.11
61682;BME280;47577;43.610;25.010;2023-09-30T00:57:25;100772.09;;;14.65;68.96
61682;BME280;47577;43.610;25.010;2023-09-30T00:59:51;100780.44;;;14.78;69.47
61682;BME280;47577;43.610;25.010;2023-09-30T01:02:21;100774.16;;;14.79;69.39
61682;BME280;47577;43.610;25.010;2023-09-30T01:04:48;100772.16;;;14.63;70.24
61682;BME280;47577;43.610;25.010;2023-09-30T01:07:14;100759.91;;;14.58;69.89
61682;BME280;47577;43.610;25.010;2023-09-30T01:09:39;100786.31;;;14.66;70.29
61682;BME280;47577;43.610;25.010;2023-09-30T01:12:05;100778.28;;;14.66;69.53
61682;BME280;47577;43.610;25.010;2023-09-30T01:14:33;100775.25;;;14.53;69.93
61682;BME280;47577;43.610;25.010;2023-09-30T01:17:09;100772.66;;;14.51;70.18
61682;BME280;47577;43.610;25.010;2023-09-30T01:19:36;100779.75;;;14.52;70.52
61682;BME280;47577;43.610;25.010;2023-09-30T01:22:02;100768.41;;;14.47;71.13
61682;BME280;47577;43.610;25.010;2023-09-30T01:24:31;100766.03;;;14.39;70.83
61682;BME280;47577;43.610;25.010;2023-09-30T01:27:03;100775.88;;;14.39;71.06
61682;BME280;47577;43.610;25.010;2023-09-30T01:29:29;100768.06;;;14.34;72.23
61682;BME280;47577;43.610;25.010;2023-09-30T01:31:54;100765.38;;;14.34;71.53
61682;BME280;47577;43.610;25.010;2023-09-30T01:34:21;100760.09;;;14.33;72.20
61682;BME280;47577;43.610;25.010;2023-09-30T01:36:46;100775.75;;;14.42;72.12
61682;BME280;47577;43.610;25.010;2023-09-30T01:39:13;100776.28;;;14.30;72.44
61682;BME280;47577;43.610;25.010;2023-09-30T01:41:40;100775.50;;;14.27;71.41
61682;BME280;47577;43.610;25.010;2023-09-30T01:44:06;100781.16;;;14.20;72.29
61682;BME280;47577;43.610;25.010;2023-09-30T01:46:33;100770.66;;;14.15;73.22
61682;BME280;47577;43.610;25.010;2023-09-30T01:48:58;100775.88;;;14.18;72.67
61682;BME280;47577;43.610;25.010;2023-09-30T01:51:24;100773.31;;;14.15;73.76
61682;BME280;47577;43.610;25.010;2023-09-30T01:53:50;100771.88;;;14.08;72.64
61682;BME280;47577;43.610;25.010;2023-09-30T01:56:16;100769.72;;;14.16;73.45
61682;BME280;47577;43.610;25.010;2023-09-30T01:58:41;100776.47;;;14.04;72.70
61682;BME280;47577;43.610;25.010;2023-09-30T02:01:09;100778.13;;;14.07;73.37
61682;BME280;47577;43.610;25.010;2023-09-30T02:03:35;100786.75;;;14.14;72.69
61682;BME280;47577;43.610;25.010;2023-09-30T02:06:01;100779.09;;;14.06;74.08
61682;BME280;47577;43.610;25.010;2023-09-30T02:08:27;100784.75;;;13.98;74.70
61682;BME280;47577;43.610;25.010;2023-09-30T02:10:52;100788.84;;;14.07;73.53
61682;BME280;47577;43.610;25.010;2023-09-30T02:13:19;100782.00;;;14.00;74.21
61682;BME280;47577;43.610;25.010;2023-09-30T02:15:45;100795.94;;;13.86;75.36
61682;BME280;47577;43.610;25.010;2023-09-30T02:18:12;100786.06;;;13.88;74.85
61682;BME280;47577;43.610;25.010;2023-09-30T02:20:37;100784.38;;;13.85;74.25
61682;BME280;47577;43.610;25.010;2023-09-30T02:23:09;100800.44;;;13.85;73.92
61682;BME280;47577;43.610;25.010;2023-09-30T02:25:39;100795.88;;;13.87;74.14
61682;BME280;47577;43.610;25.010;2023-09-30T02:28:07;100799.03;;;13.75;75.74
61682;BME280;47577;43.610;25.010;2023-09-30T02:30:32;100788.69;;;13.67;74.22
61682;BME280;47577;43.610;25.010;2023-09-30T02:32:58;100797.13;;;13.57;75.33
61682;BME280;47577;43.610;25.010;2023-09-30T02:35:24;100796.97;;;13.38;76.75
61682;BME280;47577;43.610;25.010;2023-09-30T02:37:51;100796.56;;;13.48;77.00
61682;BME280;47577;43.610;25.010;2023-09-30T02:40:18;100782.28;;;13.49;76.74
61682;BME280;47577;43.610;25.010;2023-09-30T02:42:45;100792.66;;;13.57;76.78
61682;BME280;47577;43.610;25.010;2023-09-30T02:45:11;100804.88;;;13.17;78.00
61682;BME280;47577;43.610;25.010;2023-09-30T02:47:38;100811.34;;;13.35;76.39
61682;BME280;47577;43.610;25.010;2023-09-30T02:50:08;100804.31;;;13.31;75.90
61682;BME280;47577;43.610;25.010;2023-09-30T02:52:36;100796.53;;;13.03;78.20
61682;BME280;47577;43.610;25.010;2023-09-30T02:55:04;100802.56;;;12.83;78.96
61682;BME280;47577;43.610;25.010;2023-09-30T02:57:30;100794.25;;;12.92;78.36
61682;BME280;47577;43.610;25.010;2023-09-30T02:59:56;100798.59;;;12.94;78.93
61682;BME280;47577;43.610;25.010;2023-09-30T03:02:24;100799.03;;;12.82;78.94
61682;BME280;47577;43.610;25.010;2023-09-30T03:04:50;100805.03;;;12.89;78.39
61682;BME280;47577;43.610;25.010;2023-09-30T03:07:18;100805.84;;;12.91;77.75
61682;BME280;47577;43.610;25.010;2023-09-30T03:09:44;100801.16;;;12.97;77.83
61682;BME280;47577;43.610;25.010;2023-09-30T03:12:10;100810.88;;;12.98;78.10
61682;BME280;47577;43.610;25.010;2023-09-30T03:14:37;100800.16;;;12.76;78.35
61682;BME280;47577;43.610;25.010;2023-09-30T03:17:03;100803.03;;;12.70;78.33
61682;BME280;47577;43.610;25.010;2023-09-30T03:19:28;100787.47;;;12.83;76.69
61682;BME280;47577;43.610;25.010;2023-09-30T03:21:54;100798.94;;;12.85;76.94
61682;BME280;47577;43.610;25.010;2023-09-30T03:24:20;100810.22;;;12.68;78.16
61682;BME280;47577;43.610;25.010;2023-09-30T03:26:47;100804.06;;;12.66;77.80
61682;BME280;47577;43.610;25.010;2023-09-30T03:29:12;100795.69;;;12.77;78.33
61682;BME280;47577;43.610;25.010;2023-09-30T03:31:39;100808.84;;;12.82;78.14
61682;BME280;47577;43.610;25.010;2023-09-30T03:34:05;100808.22;;;12.75;78.42
61682;BME280;47577;43.610;25.010;2023-09-30T03:36:31;100807.38;;;12.73;77.54
61682;BME280;47577;43.610;25.010;2023-09-30T03:38:57;100797.28;;;12.57;78.47
61682;BME280;47577;43.610;25.010;2023-09-30T03:41:25;100800.41;;;12.43;77.96
61682;BME280;47577;43.610;25.010;2023-09-30T03:43:51;100804.78;;;12.46;79.08
61682;BME280;47577;43.610;25.010;2023-09-30T03:46:17;100804.84;;;12.44;78.57
61682;BME280;47577;43.610;25.010;2023-09-30T03:48:43;100804.09;;;12.41;77.79
61682;BME280;47577;43.610;25.010;2023-09-30T03:51:13;100796.19;;;12.38;78.12
61682;BME280;47577;43.610;25.010;2023-09-30T03:53:43;100801.53;;;12.38;78.31
61682;BME280;47577;43.610;25.010;2023-09-30T03:56:11;100809.63;;;12.35;78.16
61682;BME280;47577;43.610;25.010;2023-09-30T03:58:38;100814.59;;;12.46;78.11
61682;BME280;47577;43.610;25.010;2023-09-30T04:01:04;100810.16;;;12.44;78.61
61682;BME280;47577;43.610;25.010;2023-09-30T04:03:30;100814.78;;;12.65;77.28
61682;BME280;47577;43.610;25.010;2023-09-30T04:05:59;100818.47;;;12.62;77.85
61682;BME280;47577;43.610;25.010;2023-09-30T04:08:24;100817.66;;;12.58;77.82
61682;BME280;47577;43.610;25.010;2023-09-30T04:10:50;100804.56;;;12.52;77.42
61682;BME280;47577;43.610;25.010;2023-09-30T04:13:16;100815.13;;;12.55;77.49
61682;BME280;47577;43.610;25.010;2023-09-30T04:15:43;100813.13;;;12.62;77.14
61682;BME280;47577;43.610;25.010;2023-09-30T04:18:10;100824.81;;;12.58;78.18
61682;BME280;47577;43.610;25.010;2023-09-30T04:20:37;100810.38;;;12.38;79.02
61682;BME280;47577;43.610;25.010;2023-09-30T04:23:06;100822.47;;;12.49;77.76
61682;BME280;47577;43.610;25.010;2023-09-30T04:25:32;100825.25;;;12.46;78.25
61682;BME280;47577;43.610;25.010;2023-09-30T04:27:58;100821.09;;;12.12;79.13
61682;BME280;47577;43.610;25.010;2023-09-30T04:30:24;100823.09;;;12.30;79.17
61682;BME280;47577;43.610;25.010;2023-09-30T04:32:49;100824.56;;;12.39;79.24
61682;BME280;47577;43.610;25.010;2023-09-30T04:35:15;100829.66;;;12.47;78.23
61682;BME280;47577;43.610;25.010;2023-09-30T04:37:41;100825.19;;;12.47;78.67
61682;BME280;47577;43.610;25.010;2023-09-30T04:40:10;100829.38;;;12.54;78.04
61682;BME280;47577;43.610;25.010;2023-09-30T04:42:55;100820.69;;;12.49;78.57
61682;BME280;47577;43.610;25.010;2023-09-30T04:45:24;100843.31;;;12.62;78.38
61682;BME280;47577;43.610;25.010;2023-09-30T04:47:54;100837.66;;;12.47;78.96
61682;BME280;47577;43.610;25.010;2023-09-30T04:50:23;100839.25;;;12.52;78.81
61682;BME280;47577;43.610;25.010;2023-09-30T04:52:50;100828.22;;;12.61;77.92
61682;BME280;47577;43.610;25.010;2023-09-30T04:55:16;100845.28;;;12.57;78.79
61682;BME280;47577;43.610;25.010;2023-09-30T04:57:44;100843.38;;;12.61;78.88
61682;BME280;47577;43.610;25.010;2023-09-30T05:00:14;100837.88;;;12.66;79.34
61682;BME280;47577;43.610;25.010;2023-09-30T05:02:44;100845.31;;;12.81;78.71
61682;BME280;47577;43.610;25.010;2023-09-30T05:05:13;100845.75;;;12.94;77.34
61682;BME280;47577;43.610;25.010;2023-09-30T05:07:40;100833.72;;;13.07;77.43
61682;BME280;47577;43.610;25.010;2023-09-30T05:10:07;100842.72;;;13.28;77.79
61682;BME280;47577;43.610;25.010;2023-09-30T05:12:38;100833.63;;;13.34;76.96
61682;BME280;47577;43.610;25.010;2023-09-30T05:15:05;100837.75;;;13.43;76.99
61682;BME280;47577;43.610;25.010;2023-09-30T05:17:33;100831.06;;;13.55;76.97
61682;BME280;47577;43.610;25.010;2023-09-30T05:19:59;100844.47;;;13.75;76.68
61682;BME280;47577;43.610;25.010;2023-09-30T05:22:24;100834.09;;;13.89;75.94
61682;BME280;47577;43.610;25.010;2023-09-30T05:24:51;100845.66;;;14.12;74.50
61682;BME280;47577;43.610;25.010;2023-09-30T05:27:18;100844.72;;;14.35;73.04
61682;BME280;47577;43.610;25.010;2023-09-30T05:29:44;100844.34;;;14.43;72.50
61682;BME280;47577;43.610;25.010;2023-09-30T05:32:09;100849.19;;;14.55;71.89
61682;BME280;47577;43.610;25.010;2023-09-30T05:34:35;100842.31;;;14.70;70.30
61682;BME280;47577;43.610;25.010;2023-09-30T05:37:00;100838.03;;;14.87;69.75
61682;BME280;47577;43.610;25.010;2023-09-30T05:39:26;100844.22;;;15.08;69.97
61682;BME280;47577;43.610;25.010;2023-09-30T05:41:54;100840.06;;;15.21;69.25
61682;BME280;47577;43.610;25.010;2023-09-30T05:44:21;100838.63;;;15.33;68.77
61682;BME280;47577;43.610;25.010;2023-09-30T05:46:47;100846.81;;;15.49;67.78
61682;BME280;47577;43.610;25.010;2023-09-30T05:49:13;100843.66;;;15.58;67.02
61682;BME280;47577;43.610;25.010;2023-09-30T05:51:42;100851.94;;;15.72;67.85
61682;BME280;47577;43.610;25.010;2023-09-30T05:54:08;100848.13;;;15.78;67.14
61682;BME280;47577;43.610;25.010;2023-09-30T05:56:38;100867.03;;;15.94;67.24
61682;BME280;47577;43.610;25.010;2023-09-30T05:59:07;100863.16;;;16.00;67.58
61682;BME280;47577;43.610;25.010;2023-09-30T06:01:33;100857.72;;;16.01;68.06
61682;BME280;47577;43.610;25.010;2023-09-30T06:04:00;100862.50;;;16.14;67.81
61682;BME280;47577;43.610;25.010;2023-09-30T06:06:26;100874.34;;;16.27;67.88
61682;BME280;47577;43.610;25.010;2023-09-30T06:08:54;100876.72;;;16.33;67.59
61682;BME280;47577;43.610;25.010;2023-09-30T06:11:21;100877.66;;;16.50;67.49
61682;BME280;47577;43.610;25.010;2023-09-30T06:13:56;100860.56;;;16.52;67.68
61682;BME280;47577;43.610;25.010;2023-09-30T06:16:24;100877.19;;;16.76;67.53
61682;BME280;47577;43.610;25.010;2023-09-30T06:18:52;100878.50;;;16.87;67.33
61682;BME280;47577;43.610;25.010;2023-09-30T06:21:18;100878.00;;;16.96;66.31
61682;BME280;47577;43.610;25.010;2023-09-30T06:23:47;100879.09;;;17.09;65.83
61682;BME280;47577;43.610;25.010;2023-09-30T06:26:14;100874.94;;;17.20;65.84
61682;BME280;47577;43.610;25.010;2023-09-30T06:28:42;100869.84;;;17.31;64.15
61682;BME280;47577;43.610;25.010;2023-09-30T06:31:08;100879.63;;;17.49;64.66
61682;BME280;47577;43.610;25.010;2023-09-30T06:33:38;100881.44;;;17.65;62.45
61682;BME280;47577;43.610;25.010;2023-09-30T06:36:09;100881.97;;;17.71;63.34
61682;BME280;47577;43.610;25.010;2023-09-30T06:38:36;100872.53;;;17.80;62.86
61682;BME280;47577;43.610;25.010;2023-09-30T06:41:03;100877.03;;;17.96;62.53
61682;BME280;47577;43.610;25.010;2023-09-30T06:43:29;100884.31;;;18.25;61.39
61682;BME280;47577;43.610;25.010;2023-09-30T06:45:55;100881.22;;;18.48;60.42
61682;BME280;47577;43.610;25.010;2023-09-30T06:48:21;100882.16;;;18.77;60.08
61682;BME280;47577;43.610;25.010;2023-09-30T06:50:48;100886.28;;;18.98;57.65
61682;BME280;47577;43.610;25.010;2023-09-30T06:53:17;100891.56;;;19.14;56.56
61682;BME280;47577;43.610;25.010;2023-09-30T06:55:43;100880.41;;;19.21;57.07
61682;BME280;47577;43.610;25.010;2023-09-30T06:58:09;100881.69;;;19.44;55.21
61682;BME280;47577;43.610;25.010;2023-09-30T07:00:40;100886.47;;;19.67;56.04
61682;BME280;47577;43.610;25.010;2023-09-30T07:03:07;100897.72;;;19.88;56.26
61682;BME280;47577;43.610;25.010;2023-09-30T07:05:35;100893.16;;;20.03;54.95
61682;BME280;47577;43.610;25.010;2023-09-30T07:08:03;100887.50;;;20.21;52.70
61682;BME280;47577;43.610;25.010;2023-09-30T07:10:28;100901.53;;;20.53;51.36
61682;BME280;47577;43.610;25.010;2023-09-30T07:12:55;100885.34;;;20.53;49.77
61682;BME280;47577;43.610;25.010;2023-09-30T07:15:21;100894.25;;;20.68;48.36
61682;BME280;47577;43.610;25.010;2023-09-30T07:17:46;100894.50;;;20.78;47.79
61682;BME280;47577;43.610;25.010;2023-09-30T07:20:13;100899.72;;;20.94;47.75
61682;BME280;47577;43.610;25.010;2023-09-30T07:22:40;100885.34;;;21.06;45.64
61682;BME280;47577;43.610;25.010;2023-09-30T07:25:06;100897.97;;;21.18;45.16
61682;BME280;47577;43.610;25.010;2023-09-30T07:27:32;100889.00;;;21.18;44.30
61682;BME280;47577;43.610;25.010;2023-09-30T07:29:59;100904.38;;;21.30;45.46
61682;BME280;47577;43.610;25.010;2023-09-30T07:32:24;100907.94;;;21.44;44.09
61682;BME280;47577;43.610;25.010;2023-09-30T07:34:51;100899.72;;;21.45;45.03
61682;BME280;47577;43.610;25.010;2023-09-30T07:37:17;100893.56;;;21.43;44.11
61682;BME280;47577;43.610;25.010;2023-09-30T07:39:44;100898.63;;;21.61;44.92
61682;BME280;47577;43.610;25.010;2023-09-30T07:42:11;100890.06;;;21.67;44.54
61682;BME280;47577;43.610;25.010;2023-09-30T07:44:36;100898.03;;;21.81;45.71
61682;BME280;47577;43.610;25.010;2023-09-30T07:47:03;100885.59;;;21.91;45.39
61682;BME280;47577;43.610;25.010;2023-09-30T07:49:29;100896.59;;;22.01;44.34
61682;BME280;47577;43.610;25.010;2023-09-30T07:51:55;100897.44;;;22.02;44.29
61682;BME280;47577;43.610;25.010;2023-09-30T07:54:21;100881.31;;;22.00;43.17
61682;BME280;47577;43.610;25.010;2023-09-30T07:56:47;100903.72;;;22.26;43.56
61682;BME280;47577;43.610;25.010;2023-09-30T07:59:12;100888.41;;;22.38;44.06
61682;BME280;47577;43.610;25.010;2023-09-30T08:01:39;100895.78;;;22.60;43.26
61682;BME280;47577;43.610;25.010;2023-09-30T08:04:06;100887.22;;;22.78;42.67
61682;BME280;47577;43.610;25.010;2023-09-30T08:06:31;100896.72;;;22.83;42.58
61682;BME280;47577;43.610;25.010;2023-09-30T08:08:57;100892.56;;;22.91;42.08
61682;BME280;47577;43.610;25.010;2023-09-30T08:11:22;100888.13;;;23.01;41.44
61682;BME280;47577;43.610;25.010;2023-09-30T08:13:50;100898.31;;;23.22;42.30
61682;BME280;47577;43.610;25.010;2023-09-30T08:16:16;100903.13;;;23.41;40.59
61682;BME280;47577;43.610;25.010;2023-09-30T08:18:41;100887.72;;;23.41;41.22
61682;BME280;47577;43.610;25.010;2023-09-30T08:21:10;100907.81;;;23.50;41.76
61682;BME280;47577;43.610;25.010;2023-09-30T08:23:39;100902.84;;;23.55;43.05
61682;BME280;47577;43.610;25.010;2023-09-30T08:26:05;100897.81;;;23.73;41.40
61682;BME280;47577;43.610;25.010;2023-09-30T08:28:31;100901.88;;;23.90;40.49
61682;BME280;47577;43.610;25.010;2023-09-30T08:31:04;100890.63;;;24.06;40.69
61682;BME280;47577;43.610;25.010;2023-09-30T08:33:31;100886.59;;;24.21;40.41
61682;BME280;47577;43.610;25.010;2023-09-30T08:36:02;100885.72;;;24.32;40.47
61682;BME280;47577;43.610;25.010;2023-09-30T08:38:33;100886.78;;;24.41;39.84
61682;BME280;47577;43.610;25.010;2023-09-30T08:40:59;100887.47;;;24.66;40.04
61682;BME280;47577;43.610;25.010;2023-09-30T08:43:25;100895.00;;;24.83;39.54
61682;BME280;47577;43.610;25.010;2023-09-30T08:45:56;100887.00;;;25.03;39.15
61682;BME280;47577;43.610;25.010;2023-09-30T08:48:23;100896.72;;;25.26;38.76
61682;BME280;47577;43.610;25.010;2023-09-30T08:50:53;100897.94;;;25.33;36.53
61682;BME280;47577;43.610;25.010;2023-09-30T08:53:20;100885.66;;;25.18;37.48
61682;BME280;47577;43.610;25.010;2023-09-30T08:55:46;100890.38;;;25.16;38.32
61682;BME280;47577;43.610;25.010;2023-09-30T08:58:12;100891.16;;;25.07;38.82
61682;BME280;47577;43.610;25.010;2023-09-30T09:00:39;100886.00;;;24.82;39.12
61682;BME280;47577;43.610;25.010;2023-09-30T09:03:08;100884.28;;;24.81;35.09
61682;BME280;47577;43.610;25.010;2023-09-30T09:05:34;100881.53;;;24.60;37.42
61682;BME280;47577;43.610;25.010;2023-09-30T09:08:00;100877.06;;;24.71;38.77
61682;BME280;47577;43.610;25.010;2023-09-30T09:10:26;100876.91;;;24.93;37.14
61682;BME280;47577;43.610;25.010;2023-09-30T09:12:56;100881.13;;;25.07;35.85
61682;BME280;47577;43.610;25.010;2023-09-30T09:15:28;100878.19;;;25.20;35.11
61682;BME280;47577;43.610;25.010;2023-09-30T09:17:54;100868.16;;;25.32;35.65
61682;BME280;47577;43.610;25.010;2023-09-30T09:20:22;100882.63;;;25.42;36.10
61682;BME280;47577;43.610;25.010;2023-09-30T09:22:51;100858.91;;;25.54;36.68
61682;BME280;47577;43.610;25.010;2023-09-30T09:25:19;100865.41;;;25.72;35.16
61682;BME280;47577;43.610;25.010;2023-09-30T09:27:47;100864.94;;;25.98;34.51
61682;BME280;47577;43.610;25.010;2023-09-30T09:30:23;100854.19;;;26.06;34.99
61682;BME280;47577;43.610;25.010;2023-09-30T09:33:01;100852.91;;;26.30;35.05
61682;BME280;47577;43.610;25.010;2023-09-30T09:35:28;100853.19;;;26.46;34.82
61682;BME280;47577;43.610;25.010;2023-09-30T09:38:02;100856.34;;;26.52;33.66
61682;BME280;47577;43.610;25.010;2023-09-30T09:40:33;100842.59;;;26.53;33.53
61682;BME280;47577;43.610;25.010;2023-09-30T09:43:00;100859.66;;;26.65;33.57
61682;BME280;47577;43.610;25.010;2023-09-30T09:45:28;100848.47;;;26.68;34.38
61682;BME280;47577;43.610;25.010;2023-09-30T09:47:54;100846.88;;;26.75;33.28
61682;BME280;47577;43.610;25.010;2023-09-30T09:50:21;100856.31;;;26.91;33.94
61682;BME280;47577;43.610;25.010;2023-09-30T09:52:54;100841.22;;;26.96;31.51
61682;BME280;47577;43.610;25.010;2023-09-30T09:55:22;100843.25;;;26.94;33.11
61682;BME280;47577;43.610;25.010;2023-09-30T09:57:49;100842.44;;;26.74;30.84
61682;BME280;47577;43.610;25.010;2023-09-30T10:00:22;100841.63;;;27.02;32.41
61682;BME280;47577;43.610;25.010;2023-09-30T10:02:50;100840.16;;;27.17;33.88
61682;BME280;47577;43.610;25.010;2023-09-30T10:05:17;100842.97;;;27.35;32.74
61682;BME280;47577;43.610;25.010;2023-09-30T10:08:07;100839.09;;;27.38;30.77
61682;BME280;47577;43.610;25.010;2023-09-30T10:10:37;100832.31;;;27.42;31.62
61682;BME280;47577;43.610;25.010;2023-09-30T10:13:04;100830.63;;;27.31;32.23
61682;BME280;47577;43.610;25.010;2023-09-30T10:15:34;100828.09;;;27.57;31.75
61682;BME280;47577;43.610;25.010;2023-09-30T10:20:39;100827.97;;;27.77;31.35
61682;BME280;47577;43.610;25.010;2023-09-30T10:31:17;100822.84;;;28.27;31.69
61682;BME280;47577;43.610;25.010;2023-09-30T10:36:31;100819.47;;;28.52;30.48
61682;BME280;47577;43.610;25.010;2023-09-30T10:39:02;100799.16;;;28.54;31.37
61682;BME280;47577;43.610;25.010;2023-09-30T10:46:57;100796.25;;;28.74;30.86
61682;BME280;47577;43.610;25.010;2023-09-30T10:51:52;100798.75;;;28.93;30.11
61682;BME280;47577;43.610;25.010;2023-09-30T10:54:36;100793.81;;;28.97;28.55
61682;BME280;47577;43.610;25.010;2023-09-30T10:57:02;100788.78;;;28.84;27.43
61682;BME280;47577;43.610;25.010;2023-09-30T10:59:29;100791.56;;;28.92;28.12
61682;BME280;47577;43.610;25.010;2023-09-30T11:02:00;100792.44;;;29.01;28.53
61682;BME280;47577;43.610;25.010;2023-09-30T11:04:26;100791.25;;;28.95;28.00
61682;BME280;47577;43.610;25.010;2023-09-30T11:06:55;100791.50;;;28.84;29.09
61682;BME280;47577;43.610;25.010;2023-09-30T11:09:22;100782.56;;;29.00;29.48
61682;BME280;47577;43.610;25.010;2023-09-30T11:11:51;100781.75;;;29.08;29.40
61682;BME280;47577;43.610;25.010;2023-09-30T11:14:28;100776.09;;;29.09;28.73
61682;BME280;47577;43.610;25.010;2023-09-30T11:17:02;100764.91;;;29.21;28.86
61682;BME280;47577;43.610;25.010;2023-09-30T11:19:47;100764.63;;;29.14;27.54
61682;BME280;47577;43.610;25.010;2023-09-30T11:22:14;100764.75;;;29.30;27.11
61682;BME280;47577;43.610;25.010;2023-09-30T11:24:40;100758.72;;;29.27;26.45
61682;BME280;47577;43.610;25.010;2023-09-30T11:27:06;100752.28;;;29.36;27.13
61682;BME280;47577;43.610;25.010;2023-09-30T11:29:32;100746.13;;;29.34;27.22
61682;BME280;47577;43.610;25.010;2023-09-30T11:31:57;100753.50;;;28.73;23.68
61682;BME280;47577;43.610;25.010;2023-09-30T11:34:36;100745.31;;;29.15;26.76
61682;BME280;47577;43.610;25.010;2023-09-30T11:37:03;100742.72;;;29.06;25.95
61682;BME280;47577;43.610;25.010;2023-09-30T11:39:29;100738.69;;;29.18;27.16
61682;BME280;47577;43.610;25.010;2023-09-30T11:41:56;100748.50;;;29.29;27.57
61682;BME280;47577;43.610;25.010;2023-09-30T11:44:23;100739.75;;;29.33;26.39
61682;BME280;47577;43.610;25.010;2023-09-30T11:46:51;100742.88;;;29.39;25.98
61682;BME280;47577;43.610;25.010;2023-09-30T11:52:01;100729.06;;;29.65;26.31
61682;BME280;47577;43.610;25.010;2023-09-30T11:54:36;100732.69;;;29.82;26.14
61682;BME280;47577;43.610;25.010;2023-09-30T11:57:11;100732.69;;;29.82;26.00
61682;BME280;47577;43.610;25.010;2023-09-30T11:59:38;100730.59;;;29.59;26.12
61682;BME280;47577;43.610;25.010;2023-09-30T12:02:09;100720.22;;;29.79;25.68
61682;BME280;47577;43.610;25.010;2023-09-30T12:04:35;100711.69;;;29.31;24.44
61682;BME280;47577;43.610;25.010;2023-09-30T12:07:02;100717.53;;;29.45;26.29
61682;BME280;47577;43.610;25.010;2023-09-30T12:09:28;100716.38;;;29.56;26.08
61682;BME280;47577;43.610;25.010;2023-09-30T12:11:55;100697.88;;;29.66;25.25
61682;BME280;47577;43.610;25.010;2023-09-30T12:14:23;100704.09;;;29.76;25.46
61682;BME280;47577;43.610;25.010;2023-09-30T12:16:49;100695.38;;;29.81;24.43
61682;BME280;47577;43.610;25.010;2023-09-30T12:19:19;100700.53;;;29.92;26.03
61682;BME280;47577;43.610;25.010;2023-09-30T12:21:45;100703.78;;;29.96;24.76
61682;BME280;47577;43.610;25.010;2023-09-30T12:24:16;100705.31;;;30.15;24.83
61682;BME280;47577;43.610;25.010;2023-09-30T12:26:51;100686.97;;;30.15;24.88
61682;BME280;47577;43.610;25.010;2023-09-30T12:29:19;100692.44;;;30.23;25.10
61682;BME280;47577;43.610;25.010;2023-09-30T12:31:45;100685.41;;;30.21;25.75
61682;BME280;47577;43.610;25.010;2023-09-30T12:34:12;100679.56;;;30.32;25.30
61682;BME280;47577;43.610;25.010;2023-09-30T12:36:41;100676.00;;;30.40;25.61
61682;BME280;47577;43.610;25.010;2023-09-30T12:39:07;100680.59;;;30.48;24.22
61682;BME280;47577;43.610;25.010;2023-09-30T12:41:40;100672.56;;;30.46;23.81
61682;BME280;47577;43.610;25.010;2023-09-30T12:44:07;100668.59;;;30.32;23.43
61682;BME280;47577;43.610;25.010;2023-09-30T12:46:33;100662.66;;;30.12;23.98
61682;BME280;47577;43.610;25.010;2023-09-30T12:49:08;100667.31;;;29.95;22.92
61682;BME280;47577;43.610;25.010;2023-09-30T12:51:36;100644.50;;;29.70;23.56
61682;BME280;47577;43.610;25.010;2023-09-30T12:54:04;100659.16;;;29.28;23.80
61682;BME280;47577;43.610;25.010;2023-09-30T12:56:30;100653.38;;;29.72;26.20
61682;BME280;47577;43.610;25.010;2023-09-30T12:58:57;100644.50;;;29.70;23.03
61682;BME280;47577;43.610;25.010;2023-09-30T13:01:23;100642.44;;;29.88;26.56
61682;BME280;47577;43.610;25.010;2023-09-30T13:03:49;100632.84;;;29.68;24.54
61682;BME280;47577;43.610;25.010;2023-09-30T13:06:16;100635.94;;;29.65;27.14